sensor_id;sensor_type;location;lat;lon;timestamp;P1;durP1;ratioP1;P2;durP2;ratioP2
17214;SDS011;8723;51.502;6.918;2023-12-14T00:00:03;40.25;;;26.02;;
17214;SDS011;8723;51.502;6.918;2023-12-14T00:02:33;39.17;;;26.20;;
17214;SDS011;8723;51.502;6.918;2023-12-14T00:05:02;41.38;;;26.23;;
17214;SDS011;8723;51.502;6.918;2023-12-14T00:07:34;33.67;;;23.85;;
17214;SDS011;8723;51.502;6.918;2023-12-14T00:10:04;36.70;;;25.42;;
17214;SDS011;8723;51.502;6.918;2023-12-14T00:12:32;33.83;;;24.05;;
17214;SDS011;8723;51.502;6.918;2023-12-14T00:14:58;34.60;;;22.80;;
17214;SDS011;8723;51.502;6.918;2023-12-14T00:17:25;28.83;;;20.67;;
17214;SDS011;8723;51.502;6.918;2023-12-14T00:19:53;31.13;;;21.08;;
17214;SDS011;8723;51.502;6.918;2023-12-14T00:22:19;27.27;;;21.08;;
17214;SDS011;8723;51.502;6.918;2023-12-14T00:24:48;32.63;;;21.58;;
17214;SDS011;8723;51.502;6.918;2023-12-14T00:27:15;28.88;;;19.95;;
17214;SDS011;8723;51.502;6.918;2023-12-14T00:29:42;28.17;;;19.40;;
17214;SDS011;8723;51.502;6.918;2023-12-14T00:32:09;24.67;;;18.05;;
17214;SDS011;8723;51.502;6.918;2023-12-14T00:34:36;22.05;;;17.88;;
17214;SDS011;8723;51.502;6.918;2023-12-14T00:37:03;21.73;;;17.85;;
17214;SDS011;8723;51.502;6.918;2023-12-14T00:39:30;23.50;;;18.15;;
17214;SDS011;8723;51.502;6.918;2023-12-14T00:41:58;22.13;;;16.67;;
17214;SDS011;8723;51.502;6.918;2023-12-14T00:44:25;21.90;;;17.43;;
17214;SDS011;8723;51.502;6.918;2023-12-14T00:46:52;24.08;;;16.70;;
17214;SDS011;8723;51.502;6.918;2023-12-14T00:49:19;21.48;;;17.55;;
17214;SDS011;8723;51.502;6.918;2023-12-14T00:51:46;19.35;;;17.25;;
17214;SDS011;8723;51.502;6.918;2023-12-14T00:54:12;22.15;;;18.17;;
17214;SDS011;8723;51.502;6.918;2023-12-14T00:56:39;22.48;;;17.88;;
17214;SDS011;8723;51.502;6.918;2023-12-14T00:59:08;24.45;;;18.20;;
17214;SDS011;8723;51.502;6.918;2023-12-14T01:01:35;21.35;;;15.73;;
17214;SDS011;8723;51.502;6.918;2023-12-14T01:04:02;21.08;;;16.88;;
17214;SDS011;8723;51.502;6.918;2023-12-14T01:06:29;21.33;;;17.00;;
17214;SDS011;8723;51.502;6.918;2023-12-14T01:08:56;25.45;;;19.77;;
17214;SDS011;8723;51.502;6.918;2023-12-14T01:11:23;26.70;;;19.20;;
17214;SDS011;8723;51.502;6.918;2023-12-14T01:13:50;25.58;;;18.85;;
17214;SDS011;8723;51.502;6.918;2023-12-14T01:16:18;28.20;;;20.42;;
17214;SDS011;8723;51.502;6.918;2023-12-14T01:18:45;24.88;;;19.35;;
17214;SDS011;8723;51.502;6.918;2023-12-14T01:21:12;26.15;;;20.05;;
17214;SDS011;8723;51.502;6.918;2023-12-14T01:23:39;25.77;;;18.88;;
17214;SDS011;8723;51.502;6.918;2023-12-14T01:26:06;28.00;;;19.42;;
17214;SDS011;8723;51.502;6.918;2023-12-14T01:28:32;26.65;;;20.85;;
17214;SDS011;8723;51.502;6.918;2023-12-14T01:30:59;25.88;;;20.85;;
17214;SDS011;8723;51.502;6.918;2023-12-14T01:33:28;32.10;;;21.88;;
17214;SDS011;8723;51.502;6.918;2023-12-14T01:35:55;28.53;;;21.27;;
17214;SDS011;8723;51.502;6.918;2023-12-14T01:38:22;34.00;;;24.53;;
17214;SDS011;8723;51.502;6.918;2023-12-14T01:40:49;31.67;;;23.27;;
17214;SDS011;8723;51.502;6.918;2023-12-14T01:43:16;33.65;;;25.17;;
17214;SDS011;8723;51.502;6.918;2023-12-14T01:45:45;37.53;;;26.33;;
17214;SDS011;8723;51.502;6.918;2023-12-14T01:48:12;42.28;;;29.52;;
17214;SDS011;8723;51.502;6.918;2023-12-14T01:50:40;52.45;;;34.03;;
17214;SDS011;8723;51.502;6.918;2023-12-14T01:53:07;45.65;;;31.38;;
17214;SDS011;8723;51.502;6.918;2023-12-14T01:55:34;52.17;;;33.10;;
17214;SDS011;8723;51.502;6.918;2023-12-14T01:58:01;67.47;;;37.95;;
17214;SDS011;8723;51.502;6.918;2023-12-14T02:00:29;71.22;;;42.90;;
17214;SDS011;8723;51.502;6.918;2023-12-14T02:03:02;61.70;;;38.25;;
17214;SDS011;8723;51.502;6.918;2023-12-14T02:05:29;64.20;;;38.85;;
17214;SDS011;8723;51.502;6.918;2023-12-14T02:07:58;61.30;;;37.42;;
17214;SDS011;8723;51.502;6.918;2023-12-14T02:10:25;66.68;;;39.08;;
17214;SDS011;8723;51.502;6.918;2023-12-14T02:12:52;65.57;;;40.23;;
17214;SDS011;8723;51.502;6.918;2023-12-14T02:15:19;56.78;;;36.35;;
17214;SDS011;8723;51.502;6.918;2023-12-14T02:17:46;64.88;;;38.47;;
17214;SDS011;8723;51.502;6.918;2023-12-14T02:20:13;69.50;;;41.10;;
17214;SDS011;8723;51.502;6.918;2023-12-14T02:22:50;77.17;;;43.77;;
17214;SDS011;8723;51.502;6.918;2023-12-14T02:25:18;71.50;;;41.07;;
17214;SDS011;8723;51.502;6.918;2023-12-14T02:27:45;81.30;;;44.58;;
17214;SDS011;8723;51.502;6.918;2023-12-14T02:30:13;82.32;;;44.30;;
17214;SDS011;8723;51.502;6.918;2023-12-14T02:32:40;80.85;;;44.47;;
17214;SDS011;8723;51.502;6.918;2023-12-14T02:35:07;75.20;;;42.57;;
17214;SDS011;8723;51.502;6.918;2023-12-14T02:37:35;78.63;;;45.08;;
17214;SDS011;8723;51.502;6.918;2023-12-14T02:40:08;84.82;;;43.78;;
17214;SDS011;8723;51.502;6.918;2023-12-14T02:42:36;76.47;;;42.40;;
17214;SDS011;8723;51.502;6.918;2023-12-14T02:45:07;74.83;;;42.90;;
17214;SDS011;8723;51.502;6.918;2023-12-14T02:47:36;86.43;;;47.50;;
17214;SDS011;8723;51.502;6.918;2023-12-14T02:50:06;102.45;;;50.75;;
17214;SDS011;8723;51.502;6.918;2023-12-14T02:52:34;115.13;;;52.72;;
17214;SDS011;8723;51.502;6.918;2023-12-14T02:55:04;118.15;;;54.97;;
17214;SDS011;8723;51.502;6.918;2023-12-14T02:57:37;90.80;;;47.05;;
17214;SDS011;8723;51.502;6.918;2023-12-14T03:00:08;106.25;;;47.70;;
17214;SDS011;8723;51.502;6.918;2023-12-14T03:02:38;99.72;;;48.50;;
17214;SDS011;8723;51.502;6.918;2023-12-14T03:05:08;90.85;;;45.45;;
17214;SDS011;8723;51.502;6.918;2023-12-14T03:07:38;83.78;;;43.85;;
17214;SDS011;8723;51.502;6.918;2023-12-14T03:10:11;88.32;;;43.92;;
17214;SDS011;8723;51.502;6.918;2023-12-14T03:12:41;86.15;;;43.60;;
17214;SDS011;8723;51.502;6.918;2023-12-14T03:15:11;82.38;;;41.60;;
17214;SDS011;8723;51.502;6.918;2023-12-14T03:17:41;77.57;;;40.72;;
17214;SDS011;8723;51.502;6.918;2023-12-14T03:20:11;75.50;;;36.53;;
17214;SDS011;8723;51.502;6.918;2023-12-14T03:22:41;83.88;;;40.92;;
17214;SDS011;8723;51.502;6.918;2023-12-14T03:25:14;89.80;;;43.47;;
17214;SDS011;8723;51.502;6.918;2023-12-14T03:27:43;80.35;;;40.30;;
17214;SDS011;8723;51.502;6.918;2023-12-14T03:30:13;79.65;;;39.90;;
17214;SDS011;8723;51.502;6.918;2023-12-14T03:32:44;83.65;;;42.00;;
17214;SDS011;8723;51.502;6.918;2023-12-14T03:35:14;76.03;;;39.20;;
17214;SDS011;8723;51.502;6.918;2023-12-14T03:37:44;92.37;;;44.27;;
17214;SDS011;8723;51.502;6.918;2023-12-14T03:40:15;79.50;;;38.75;;
17214;SDS011;8723;51.502;6.918;2023-12-14T03:42:45;80.10;;;41.35;;
17214;SDS011;8723;51.502;6.918;2023-12-14T03:45:14;74.68;;;37.55;;
17214;SDS011;8723;51.502;6.918;2023-12-14T03:47:42;81.43;;;39.03;;
17214;SDS011;8723;51.502;6.918;2023-12-14T03:50:11;79.00;;;37.83;;
17214;SDS011;8723;51.502;6.918;2023-12-14T03:52:41;55.83;;;30.77;;
17214;SDS011;8723;51.502;6.918;2023-12-14T03:55:08;70.72;;;36.17;;
17214;SDS011;8723;51.502;6.918;2023-12-14T03:57:37;64.20;;;31.95;;
17214;SDS011;8723;51.502;6.918;2023-12-14T04:00:04;63.53;;;32.88;;
17214;SDS011;8723;51.502;6.918;2023-12-14T04:02:34;68.13;;;34.88;;
17214;SDS011;8723;51.502;6.918;2023-12-14T04:05:04;68.93;;;34.13;;
17214;SDS011;8723;51.502;6.918;2023-12-14T04:07:34;93.43;;;42.40;;
17214;SDS011;8723;51.502;6.918;2023-12-14T04:10:06;78.47;;;39.38;;
17214;SDS011;8723;51.502;6.918;2023-12-14T04:12:39;95.55;;;44.97;;
17214;SDS011;8723;51.502;6.918;2023-12-14T04:15:09;98.20;;;44.97;;
17214;SDS011;8723;51.502;6.918;2023-12-14T04:17:36;114.72;;;50.08;;
17214;SDS011;8723;51.502;6.918;2023-12-14T04:20:04;95.95;;;42.88;;
17214;SDS011;8723;51.502;6.918;2023-12-14T04:22:32;92.93;;;42.72;;
17214;SDS011;8723;51.502;6.918;2023-12-14T04:24:59;111.03;;;48.15;;
17214;SDS011;8723;51.502;6.918;2023-12-14T04:27:26;93.15;;;42.92;;
17214;SDS011;8723;51.502;6.918;2023-12-14T04:29:56;100.60;;;43.80;;
17214;SDS011;8723;51.502;6.918;2023-12-14T04:32:23;78.22;;;37.47;;
17214;SDS011;8723;51.502;6.918;2023-12-14T04:34:50;106.40;;;48.45;;
17214;SDS011;8723;51.502;6.918;2023-12-14T04:37:16;82.05;;;38.97;;
17214;SDS011;8723;51.502;6.918;2023-12-14T04:39:43;82.88;;;40.75;;
17214;SDS011;8723;51.502;6.918;2023-12-14T04:42:10;88.32;;;42.03;;
17214;SDS011;8723;51.502;6.918;2023-12-14T04:44:37;92.25;;;43.97;;
17214;SDS011;8723;51.502;6.918;2023-12-14T04:47:05;98.68;;;44.75;;
17214;SDS011;8723;51.502;6.918;2023-12-14T04:49:33;82.60;;;39.70;;
17214;SDS011;8723;51.502;6.918;2023-12-14T04:52:00;86.97;;;42.80;;
17214;SDS011;8723;51.502;6.918;2023-12-14T04:54:27;75.63;;;36.35;;
17214;SDS011;8723;51.502;6.918;2023-12-14T04:56:53;86.50;;;40.63;;
17214;SDS011;8723;51.502;6.918;2023-12-14T04:59:20;75.25;;;37.75;;
17214;SDS011;8723;51.502;6.918;2023-12-14T05:01:47;84.22;;;39.40;;
17214;SDS011;8723;51.502;6.918;2023-12-14T05:04:15;87.40;;;41.05;;
17214;SDS011;8723;51.502;6.918;2023-12-14T05:06:42;81.72;;;38.90;;
17214;SDS011;8723;51.502;6.918;2023-12-14T05:09:09;84.77;;;38.87;;
17214;SDS011;8723;51.502;6.918;2023-12-14T05:11:36;91.90;;;42.17;;
17214;SDS011;8723;51.502;6.918;2023-12-14T05:14:05;91.07;;;44.37;;
17214;SDS011;8723;51.502;6.918;2023-12-14T05:16:32;102.28;;;46.60;;
17214;SDS011;8723;51.502;6.918;2023-12-14T05:18:59;93.28;;;43.38;;
17214;SDS011;8723;51.502;6.918;2023-12-14T05:21:27;92.20;;;42.97;;
17214;SDS011;8723;51.502;6.918;2023-12-14T05:23:54;93.50;;;43.58;;
17214;SDS011;8723;51.502;6.918;2023-12-14T05:26:21;114.85;;;48.22;;
17214;SDS011;8723;51.502;6.918;2023-12-14T05:28:47;116.97;;;49.80;;
17214;SDS011;8723;51.502;6.918;2023-12-14T05:31:14;95.23;;;43.93;;
17214;SDS011;8723;51.502;6.918;2023-12-14T05:33:41;87.35;;;40.17;;
17214;SDS011;8723;51.502;6.918;2023-12-14T05:36:08;99.35;;;45.33;;
17214;SDS011;8723;51.502;6.918;2023-12-14T05:38:37;110.25;;;47.28;;
17214;SDS011;8723;51.502;6.918;2023-12-14T05:41:05;133.07;;;54.05;;
17214;SDS011;8723;51.502;6.918;2023-12-14T05:43:33;116.57;;;48.30;;
17214;SDS011;8723;51.502;6.918;2023-12-14T05:46:00;106.28;;;48.50;;
17214;SDS011;8723;51.502;6.918;2023-12-14T05:48:27;125.05;;;52.28;;
17214;SDS011;8723;51.502;6.918;2023-12-14T05:50:56;107.43;;;47.75;;
17214;SDS011;8723;51.502;6.918;2023-12-14T05:53:23;116.57;;;49.42;;
17214;SDS011;8723;51.502;6.918;2023-12-14T05:55:51;117.90;;;49.70;;
17214;SDS011;8723;51.502;6.918;2023-12-14T05:58:18;140.40;;;54.92;;
17214;SDS011;8723;51.502;6.918;2023-12-14T06:00:45;114.40;;;48.42;;
17214;SDS011;8723;51.502;6.918;2023-12-14T06:03:12;103.55;;;44.58;;
17214;SDS011;8723;51.502;6.918;2023-12-14T06:05:39;128.03;;;50.93;;
17214;SDS011;8723;51.502;6.918;2023-12-14T06:08:06;127.50;;;54.38;;
17214;SDS011;8723;51.502;6.918;2023-12-14T06:10:33;109.93;;;48.30;;
17214;SDS011;8723;51.502;6.918;2023-12-14T06:13:01;128.18;;;52.65;;
17214;SDS011;8723;51.502;6.918;2023-12-14T06:15:28;104.03;;;45.67;;
17214;SDS011;8723;51.502;6.918;2023-12-14T06:17:55;118.93;;;52.17;;
17214;SDS011;8723;51.502;6.918;2023-12-14T06:20:22;109.00;;;48.40;;
17214;SDS011;8723;51.502;6.918;2023-12-14T06:22:49;134.02;;;57.03;;
17214;SDS011;8723;51.502;6.918;2023-12-14T06:25:16;114.75;;;52.47;;
17214;SDS011;8723;51.502;6.918;2023-12-14T06:27:43;130.00;;;57.92;;
17214;SDS011;8723;51.502;6.918;2023-12-14T06:30:12;128.57;;;56.30;;
17214;SDS011;8723;51.502;6.918;2023-12-14T06:32:39;120.70;;;55.97;;
17214;SDS011;8723;51.502;6.918;2023-12-14T06:35:06;130.02;;;56.35;;
17214;SDS011;8723;51.502;6.918;2023-12-14T06:37:33;114.75;;;52.28;;
17214;SDS011;8723;51.502;6.918;2023-12-14T06:40:00;122.97;;;55.75;;
17214;SDS011;8723;51.502;6.918;2023-12-14T06:42:27;122.90;;;56.93;;
17214;SDS011;8723;51.502;6.918;2023-12-14T06:44:55;122.55;;;56.13;;
17214;SDS011;8723;51.502;6.918;2023-12-14T06:47:23;119.70;;;52.97;;
17214;SDS011;8723;51.502;6.918;2023-12-14T06:49:50;113.40;;;52.33;;
17214;SDS011;8723;51.502;6.918;2023-12-14T06:52:17;108.53;;;53.72;;
17214;SDS011;8723;51.502;6.918;2023-12-14T06:54:44;96.55;;;47.05;;
17214;SDS011;8723;51.502;6.918;2023-12-14T06:57:11;95.97;;;47.67;;
17214;SDS011;8723;51.502;6.918;2023-12-14T06:59:38;90.13;;;45.72;;
17214;SDS011;8723;51.502;6.918;2023-12-14T07:02:05;101.40;;;47.05;;
17214;SDS011;8723;51.502;6.918;2023-12-14T07:04:34;96.38;;;47.03;;
17214;SDS011;8723;51.502;6.918;2023-12-14T07:07:01;95.45;;;44.30;;
17214;SDS011;8723;51.502;6.918;2023-12-14T07:09:28;100.32;;;50.00;;
17214;SDS011;8723;51.502;6.918;2023-12-14T07:11:55;98.43;;;48.53;;
17214;SDS011;8723;51.502;6.918;2023-12-14T07:14:21;88.30;;;44.15;;
17214;SDS011;8723;51.502;6.918;2023-12-14T07:16:48;72.93;;;36.90;;
17214;SDS011;8723;51.502;6.918;2023-12-14T07:19:15;96.38;;;46.20;;
17214;SDS011;8723;51.502;6.918;2023-12-14T07:21:43;99.90;;;48.28;;
17214;SDS011;8723;51.502;6.918;2023-12-14T07:24:10;94.80;;;45.63;;
17214;SDS011;8723;51.502;6.918;2023-12-14T07:26:37;102.55;;;48.88;;
17214;SDS011;8723;51.502;6.918;2023-12-14T07:29:04;115.68;;;52.35;;
17214;SDS011;8723;51.502;6.918;2023-12-14T07:31:31;104.05;;;49.00;;
17214;SDS011;8723;51.502;6.918;2023-12-14T07:33:59;98.80;;;47.50;;
17214;SDS011;8723;51.502;6.918;2023-12-14T07:36:26;105.00;;;50.05;;
17214;SDS011;8723;51.502;6.918;2023-12-14T07:38:54;119.07;;;55.13;;
17214;SDS011;8723;51.502;6.918;2023-12-14T07:41:21;113.13;;;53.17;;
17214;SDS011;8723;51.502;6.918;2023-12-14T07:43:51;105.25;;;50.38;;
17214;SDS011;8723;51.502;6.918;2023-12-14T07:46:18;122.78;;;55.25;;
17214;SDS011;8723;51.502;6.918;2023-12-14T07:48:45;131.07;;;54.53;;
17214;SDS011;8723;51.502;6.918;2023-12-14T07:51:12;147.90;;;64.68;;
17214;SDS011;8723;51.502;6.918;2023-12-14T07:53:39;132.57;;;59.10;;
17214;SDS011;8723;51.502;6.918;2023-12-14T07:56:08;119.38;;;51.97;;
17214;SDS011;8723;51.502;6.918;2023-12-14T07:58:35;105.05;;;49.55;;
17214;SDS011;8723;51.502;6.918;2023-12-14T08:01:02;117.55;;;55.38;;
17214;SDS011;8723;51.502;6.918;2023-12-14T08:03:29;128.13;;;57.03;;
17214;SDS011;8723;51.502;6.918;2023-12-14T08:05:56;123.28;;;56.05;;
17214;SDS011;8723;51.502;6.918;2023-12-14T08:08:22;127.47;;;58.72;;
17214;SDS011;8723;51.502;6.918;2023-12-14T08:10:49;119.22;;;54.05;;
17214;SDS011;8723;51.502;6.918;2023-12-14T08:13:18;110.50;;;53.50;;
17214;SDS011;8723;51.502;6.918;2023-12-14T08:15:44;113.13;;;55.20;;
17214;SDS011;8723;51.502;6.918;2023-12-14T08:18:11;123.17;;;57.83;;
17214;SDS011;8723;51.502;6.918;2023-12-14T08:20:38;112.97;;;53.72;;
17214;SDS011;8723;51.502;6.918;2023-12-14T08:23:05;111.35;;;52.50;;
17214;SDS011;8723;51.502;6.918;2023-12-14T08:25:32;111.55;;;53.88;;
17214;SDS011;8723;51.502;6.918;2023-12-14T08:27:59;98.95;;;50.75;;
17214;SDS011;8723;51.502;6.918;2023-12-14T08:30:27;105.03;;;51.45;;
17214;SDS011;8723;51.502;6.918;2023-12-14T08:32:54;112.88;;;55.35;;
17214;SDS011;8723;51.502;6.918;2023-12-14T08:35:21;114.28;;;55.20;;
17214;SDS011;8723;51.502;6.918;2023-12-14T08:37:47;93.20;;;45.97;;
17214;SDS011;8723;51.502;6.918;2023-12-14T08:40:14;127.63;;;59.03;;
17214;SDS011;8723;51.502;6.918;2023-12-14T08:42:41;123.63;;;58.55;;
17214;SDS011;8723;51.502;6.918;2023-12-14T08:45:08;119.65;;;56.88;;
17214;SDS011;8723;51.502;6.918;2023-12-14T08:47:38;143.30;;;65.15;;
17214;SDS011;8723;51.502;6.918;2023-12-14T08:50:06;117.80;;;56.33;;
17214;SDS011;8723;51.502;6.918;2023-12-14T08:52:33;138.48;;;61.50;;
17214;SDS011;8723;51.502;6.918;2023-12-14T08:55:00;136.23;;;61.75;;
17214;SDS011;8723;51.502;6.918;2023-12-14T08:57:28;155.95;;;64.97;;
17214;SDS011;8723;51.502;6.918;2023-12-14T08:59:56;148.73;;;68.32;;
17214;SDS011;8723;51.502;6.918;2023-12-14T09:02:22;155.50;;;66.82;;
17214;SDS011;8723;51.502;6.918;2023-12-14T09:04:51;143.80;;;63.42;;
17214;SDS011;8723;51.502;6.918;2023-12-14T09:07:18;147.73;;;63.78;;
17214;SDS011;8723;51.502;6.918;2023-12-14T09:09:44;150.00;;;65.13;;
17214;SDS011;8723;51.502;6.918;2023-12-14T09:12:11;151.73;;;66.63;;
17214;SDS011;8723;51.502;6.918;2023-12-14T09:14:38;162.27;;;68.28;;
17214;SDS011;8723;51.502;6.918;2023-12-14T09:17:05;151.02;;;65.65;;
17214;SDS011;8723;51.502;6.918;2023-12-14T09:19:32;151.73;;;64.18;;
17214;SDS011;8723;51.502;6.918;2023-12-14T09:22:00;162.75;;;69.10;;
17214;SDS011;8723;51.502;6.918;2023-12-14T09:24:27;155.90;;;66.88;;
17214;SDS011;8723;51.502;6.918;2023-12-14T09:26:55;145.30;;;63.10;;
17214;SDS011;8723;51.502;6.918;2023-12-14T09:29:22;134.60;;;59.03;;
17214;SDS011;8723;51.502;6.918;2023-12-14T09:31:49;155.40;;;66.15;;
17214;SDS011;8723;51.502;6.918;2023-12-14T09:34:16;122.83;;;53.23;;
17214;SDS011;8723;51.502;6.918;2023-12-14T09:36:43;132.93;;;58.65;;
17214;SDS011;8723;51.502;6.918;2023-12-14T09:39:11;119.20;;;54.10;;
17214;SDS011;8723;51.502;6.918;2023-12-14T09:41:40;121.45;;;55.45;;
17214;SDS011;8723;51.502;6.918;2023-12-14T09:44:07;115.85;;;52.08;;
17214;SDS011;8723;51.502;6.918;2023-12-14T09:46:36;116.07;;;52.80;;
17214;SDS011;8723;51.502;6.918;2023-12-14T09:49:06;128.10;;;58.38;;
17214;SDS011;8723;51.502;6.918;2023-12-14T09:51:35;126.20;;;57.90;;
17214;SDS011;8723;51.502;6.918;2023-12-14T09:54:02;114.93;;;55.13;;
17214;SDS011;8723;51.502;6.918;2023-12-14T09:56:30;109.68;;;51.17;;
17214;SDS011;8723;51.502;6.918;2023-12-14T09:58:58;116.97;;;53.60;;
17214;SDS011;8723;51.502;6.918;2023-12-14T10:01:27;102.35;;;50.08;;
17214;SDS011;8723;51.502;6.918;2023-12-14T10:04:06;109.95;;;51.63;;
17214;SDS011;8723;51.502;6.918;2023-12-14T10:06:34;114.68;;;55.58;;
17214;SDS011;8723;51.502;6.918;2023-12-14T10:09:02;102.57;;;49.92;;
17214;SDS011;8723;51.502;6.918;2023-12-14T10:11:30;104.82;;;52.63;;
17214;SDS011;8723;51.502;6.918;2023-12-14T10:13:57;89.88;;;46.45;;
17214;SDS011;8723;51.502;6.918;2023-12-14T10:16:27;91.07;;;46.75;;
17214;SDS011;8723;51.502;6.918;2023-12-14T10:18:56;93.03;;;47.80;;
17214;SDS011;8723;51.502;6.918;2023-12-14T10:21:23;90.45;;;44.97;;
17214;SDS011;8723;51.502;6.918;2023-12-14T10:23:50;72.50;;;37.97;;
17214;SDS011;8723;51.502;6.918;2023-12-14T10:26:17;77.60;;;41.92;;
17214;SDS011;8723;51.502;6.918;2023-12-14T10:28:46;74.47;;;39.90;;
17214;SDS011;8723;51.502;6.918;2023-12-14T10:31:12;84.10;;;44.90;;
17214;SDS011;8723;51.502;6.918;2023-12-14T10:33:40;80.07;;;41.42;;
17214;SDS011;8723;51.502;6.918;2023-12-14T10:36:07;82.97;;;44.25;;
17214;SDS011;8723;51.502;6.918;2023-12-14T10:38:36;74.45;;;40.63;;
17214;SDS011;8723;51.502;6.918;2023-12-14T10:41:04;71.82;;;37.78;;
17214;SDS011;8723;51.502;6.918;2023-12-14T10:43:32;82.97;;;43.17;;
17214;SDS011;8723;51.502;6.918;2023-12-14T10:46:04;71.33;;;38.00;;
17214;SDS011;8723;51.502;6.918;2023-12-14T10:48:32;73.57;;;37.85;;
17214;SDS011;8723;51.502;6.918;2023-12-14T10:51:02;71.47;;;36.78;;
17214;SDS011;8723;51.502;6.918;2023-12-14T10:53:30;64.40;;;33.78;;
17214;SDS011;8723;51.502;6.918;2023-12-14T10:55:58;67.10;;;34.92;;
17214;SDS011;8723;51.502;6.918;2023-12-14T10:58:30;67.10;;;33.00;;
17214;SDS011;8723;51.502;6.918;2023-12-14T11:01:14;68.00;;;34.25;;
17214;SDS011;8723;51.502;6.918;2023-12-14T11:03:42;66.35;;;34.63;;
17214;SDS011;8723;51.502;6.918;2023-12-14T11:06:28;57.60;;;29.88;;
17214;SDS011;8723;51.502;6.918;2023-12-14T11:08:58;59.90;;;32.05;;
17214;SDS011;8723;51.502;6.918;2023-12-14T11:11:28;63.65;;;33.63;;
17214;SDS011;8723;51.502;6.918;2023-12-14T11:13:55;59.13;;;31.55;;
17214;SDS011;8723;51.502;6.918;2023-12-14T11:16:25;59.22;;;31.17;;
17214;SDS011;8723;51.502;6.918;2023-12-14T11:24:42;71.97;;;36.08;;
17214;SDS011;8723;51.502;6.918;2023-12-14T11:27:17;59.45;;;32.28;;
17214;SDS011;8723;51.502;6.918;2023-12-14T11:29:47;67.60;;;36.22;;
17214;SDS011;8723;51.502;6.918;2023-12-14T11:32:16;57.03;;;31.60;;
17214;SDS011;8723;51.502;6.918;2023-12-14T11:34:43;55.65;;;29.70;;
17214;SDS011;8723;51.502;6.918;2023-12-14T11:37:13;65.15;;;32.30;;
17214;SDS011;8723;51.502;6.918;2023-12-14T11:39:40;61.05;;;32.67;;
17214;SDS011;8723;51.502;6.918;2023-12-14T11:42:08;62.15;;;32.45;;
17214;SDS011;8723;51.502;6.918;2023-12-14T11:44:36;58.97;;;31.40;;
17214;SDS011;8723;51.502;6.918;2023-12-14T11:47:03;62.00;;;32.40;;
17214;SDS011;8723;51.502;6.918;2023-12-14T11:49:31;54.05;;;29.60;;
17214;SDS011;8723;51.502;6.918;2023-12-14T11:52:01;62.03;;;32.42;;
17214;SDS011;8723;51.502;6.918;2023-12-14T11:54:29;60.00;;;32.42;;
17214;SDS011;8723;51.502;6.918;2023-12-14T11:56:56;61.20;;;32.33;;
17214;SDS011;8723;51.502;6.918;2023-12-14T11:59:23;62.78;;;32.55;;
17214;SDS011;8723;51.502;6.918;2023-12-14T12:01:56;53.73;;;28.23;;
17214;SDS011;8723;51.502;6.918;2023-12-14T12:04:24;57.20;;;30.88;;
17214;SDS011;8723;51.502;6.918;2023-12-14T12:06:59;59.30;;;30.15;;
17214;SDS011;8723;51.502;6.918;2023-12-14T12:09:34;59.60;;;32.15;;
17214;SDS011;8723;51.502;6.918;2023-12-14T12:12:05;49.42;;;27.80;;
17214;SDS011;8723;51.502;6.918;2023-12-14T12:14:32;63.08;;;33.40;;
17214;SDS011;8723;51.502;6.918;2023-12-14T12:16:59;52.35;;;29.00;;
17214;SDS011;8723;51.502;6.918;2023-12-14T12:19:26;50.03;;;27.97;;
17214;SDS011;8723;51.502;6.918;2023-12-14T12:21:53;46.27;;;26.50;;
17214;SDS011;8723;51.502;6.918;2023-12-14T12:24:21;55.70;;;30.83;;
17214;SDS011;8723;51.502;6.918;2023-12-14T12:26:48;51.97;;;28.08;;
17214;SDS011;8723;51.502;6.918;2023-12-14T12:29:15;44.67;;;25.95;;
17214;SDS011;8723;51.502;6.918;2023-12-14T12:31:42;53.38;;;29.35;;
17214;SDS011;8723;51.502;6.918;2023-12-14T12:34:10;42.60;;;24.20;;
17214;SDS011;8723;51.502;6.918;2023-12-14T12:36:37;50.50;;;28.73;;
17214;SDS011;8723;51.502;6.918;2023-12-14T12:39:04;46.28;;;26.77;;
17214;SDS011;8723;51.502;6.918;2023-12-14T12:41:33;49.27;;;27.67;;
17214;SDS011;8723;51.502;6.918;2023-12-14T12:44:02;48.95;;;27.55;;
17214;SDS011;8723;51.502;6.918;2023-12-14T12:46:31;48.88;;;26.25;;
17214;SDS011;8723;51.502;6.918;2023-12-14T12:48:59;46.53;;;25.53;;
17214;SDS011;8723;51.502;6.918;2023-12-14T12:51:26;49.17;;;26.00;;
17214;SDS011;8723;51.502;6.918;2023-12-14T12:53:54;49.17;;;26.53;;
17214;SDS011;8723;51.502;6.918;2023-12-14T12:56:22;49.85;;;26.33;;
17214;SDS011;8723;51.502;6.918;2023-12-14T12:58:50;48.10;;;26.27;;
17214;SDS011;8723;51.502;6.918;2023-12-14T13:01:19;49.63;;;27.08;;
17214;SDS011;8723;51.502;6.918;2023-12-14T13:03:47;45.95;;;23.85;;
17214;SDS011;8723;51.502;6.918;2023-12-14T13:06:18;46.37;;;25.47;;
17214;SDS011;8723;51.502;6.918;2023-12-14T13:08:45;42.75;;;24.23;;
17214;SDS011;8723;51.502;6.918;2023-12-14T13:11:12;46.15;;;25.48;;
17214;SDS011;8723;51.502;6.918;2023-12-14T13:13:39;48.97;;;26.05;;
17214;SDS011;8723;51.502;6.918;2023-12-14T13:16:08;44.55;;;23.80;;
17214;SDS011;8723;51.502;6.918;2023-12-14T13:18:35;42.63;;;24.17;;
17214;SDS011;8723;51.502;6.918;2023-12-14T13:21:02;50.47;;;27.63;;
17214;SDS011;8723;51.502;6.918;2023-12-14T13:23:29;56.08;;;28.02;;
17214;SDS011;8723;51.502;6.918;2023-12-14T13:25:56;49.25;;;26.77;;
17214;SDS011;8723;51.502;6.918;2023-12-14T13:28:23;52.83;;;28.67;;
17214;SDS011;8723;51.502;6.918;2023-12-14T13:30:50;54.92;;;28.60;;
17214;SDS011;8723;51.502;6.918;2023-12-14T13:33:18;56.45;;;29.02;;
17214;SDS011;8723;51.502;6.918;2023-12-14T13:35:46;59.63;;;30.52;;
17214;SDS011;8723;51.502;6.918;2023-12-14T13:38:13;53.15;;;27.13;;
17214;SDS011;8723;51.502;6.918;2023-12-14T13:40:41;68.78;;;33.40;;
17214;SDS011;8723;51.502;6.918;2023-12-14T13:43:08;57.45;;;29.65;;
17214;SDS011;8723;51.502;6.918;2023-12-14T13:48:03;61.07;;;31.87;;
17214;SDS011;8723;51.502;6.918;2023-12-14T13:50:32;64.75;;;31.73;;
17214;SDS011;8723;51.502;6.918;2023-12-14T13:52:59;60.95;;;30.02;;
17214;SDS011;8723;51.502;6.918;2023-12-14T13:55:27;60.97;;;30.80;;
17214;SDS011;8723;51.502;6.918;2023-12-14T13:57:53;54.67;;;28.80;;
17214;SDS011;8723;51.502;6.918;2023-12-14T14:00:23;56.85;;;29.55;;
17214;SDS011;8723;51.502;6.918;2023-12-14T14:02:50;65.57;;;33.15;;
17214;SDS011;8723;51.502;6.918;2023-12-14T14:05:17;56.75;;;30.88;;
17214;SDS011;8723;51.502;6.918;2023-12-14T14:07:45;67.80;;;35.07;;
17214;SDS011;8723;51.502;6.918;2023-12-14T14:10:12;68.82;;;35.80;;
17214;SDS011;8723;51.502;6.918;2023-12-14T14:12:39;67.85;;;34.65;;
17214;SDS011;8723;51.502;6.918;2023-12-14T14:15:07;70.30;;;35.92;;
17214;SDS011;8723;51.502;6.918;2023-12-14T14:17:34;66.65;;;34.80;;
17214;SDS011;8723;51.502;6.918;2023-12-14T14:20:00;71.50;;;36.38;;
17214;SDS011;8723;51.502;6.918;2023-12-14T14:22:27;65.63;;;34.55;;
17214;SDS011;8723;51.502;6.918;2023-12-14T14:24:56;68.43;;;35.92;;
17214;SDS011;8723;51.502;6.918;2023-12-14T14:27:23;69.72;;;34.95;;
17214;SDS011;8723;51.502;6.918;2023-12-14T14:29:50;76.43;;;37.60;;
17214;SDS011;8723;51.502;6.918;2023-12-14T14:32:19;70.72;;;34.45;;
17214;SDS011;8723;51.502;6.918;2023-12-14T14:34:46;67.13;;;33.08;;
17214;SDS011;8723;51.502;6.918;2023-12-14T14:37:13;65.45;;;33.30;;
17214;SDS011;8723;51.502;6.918;2023-12-14T14:39:40;69.77;;;33.77;;
17214;SDS011;8723;51.502;6.918;2023-12-14T14:42:09;69.20;;;35.55;;